Latest Weather Observations for Tocal

IDN60801

Issued at 2:33 am EST Sunday 24 July 2016 (issued every 30 minutes, with the page automatically refreshed every 10 minutes)

About weather observations | Map of weather stations | Latest weather observations for NSW | Other Formats
Station Details ID: 061250 Name: TOCAL AWS Lat: -32.63 Lon: 151.59 Height: 30.0 m
Data from the previous 72 hours. | See also: Recent months at Tocal
Date/Time
EST
Temp
°C
App
Temp
°C
Dew
Point
°C
Rel
Hum
%
Delta-T
°C
Wind Press
QNH
hPa
Press
MSL
hPa
Rain since
9am
mm
Dir  Spd
km/h
Gust
km/h
Spd
kts
Gust
kts
24/02:30am 10.2 5.9 1.3 54 3.7 WNW 13 19 7 10 - - 0.0
24/02:00am 10.3 6.2 2.0 56 3.5 WNW 13 19 7 10 - - 0.0
24/01:30am 10.4 6.3 2.5 58 3.4 WNW 13 19 7 10 - - 0.0
24/01:00am 10.8 5.9 1.8 54 3.8 WNW 17 24 9 13 - - 0.0
24/12:30am 10.9 6.7 1.7 53 3.9 W 13 28 7 15 - - 0.0
24/12:00am 11.1 6.9 1.6 52 4.0 WNW 13 26 7 14 - - 0.0
 
Date/Time
EST
Temp
°C
App
Temp
°C
Dew
Point
°C
Rel
Hum
%
Delta-T
°C
Wind Press
QNH
hPa
Press
MSL
hPa
Rain since
9am
mm
Dir  Spd
km/h
Gust
km/h
Spd
kts
Gust
kts
23/11:30pm 11.1 6.9 1.9 53 3.9 WNW 13 20 7 11 - - 0.0
23/11:00pm 11.5 6.5 1.6 50 4.2 WNW 17 32 9 17 - - 0.0
23/10:30pm 11.7 7.1 1.6 50 4.3 WNW 15 26 8 14 - - 0.0
23/10:00pm 11.7 6.7 1.6 50 4.3 WNW 17 33 9 18 - - 0.0
23/09:30pm 12.1 6.6 0.9 46 4.7 NW 19 35 10 19 - - 0.0
23/09:00pm 12.3 7.2 0.9 45 4.8 WNW 17 37 9 20 - - 0.0
23/08:30pm 12.6 6.5 0.7 44 5.0 WNW 22 39 12 21 - - 0.0
23/08:00pm 12.7 6.3 0.8 44 5.0 WNW 24 35 13 19 - - 0.0
23/07:30pm 12.8 7.1 0.7 43 5.1 WNW 20 35 11 19 - - 0.0
23/07:00pm 13.1 7.4 0.5 42 5.3 NW 20 35 11 19 - - 0.0
23/06:30pm 13.5 6.6 0.1 40 5.6 WNW 26 46 14 25 - - 0.0
23/06:19pm 13.8 6.5 -0.1 38 5.8 NW 28 50 15 27 - - 0.0
23/06:00pm 13.8 7.3 0.2 39 5.7 WNW 24 46 13 25 - - 0.0
23/05:30pm 14.3 8.5 0.0 37 6.0 WNW 20 33 11 18 - - 0.0
23/05:00pm 14.8 9.2 -0.2 36 6.3 WNW 19 30 10 16 - - 0.0
23/04:30pm 15.5 8.9 -0.4 33 6.7 WNW 24 43 13 23 - - 0.0
23/04:00pm 16.2 8.5 -0.3 32 7.0 WNW 30 54 16 29 - - 0.0
23/03:30pm 16.7 9.3 -0.8 30 7.4 WNW 28 56 15 30 - - 0.0
23/03:00pm 16.8 8.6 -1.0 29 7.5 WNW 32 54 17 29 - - 0.0
23/02:30pm 17.0 8.7 -1.4 28 7.7 WNW 32 56 17 30 - - 0.0
23/02:00pm 17.7 9.3 -1.2 27 8.0 WNW 33 72 18 39 - - 0.0
23/01:51pm 17.3 8.8 -2.0 26 8.0 WNW 33 72 18 39 - - 0.0
23/01:44pm 17.3 8.9 -2.4 26 8.1 W 32 52 17 28 - - 0.0
23/01:30pm 17.5 7.5 -2.0 26 8.1 NW 41 61 22 33 - - 0.0
23/01:29pm 17.6 8.3 -1.8 26 8.1 NW 37 61 20 33 - - 0.0
23/01:18pm 17.3 7.9 -0.1 30 7.5 W 39 69 21 37 - - 0.0
23/01:16pm 17.4 5.6 -2.2 26 8.1 W 50 69 27 37 - - 0.0
23/01:13pm 18.1 8.3 -0.1 29 7.9 NW 41 59 22 32 - - 0.0
23/01:12pm 18.1 8.3 -0.1 29 7.9 NW 41 59 22 32 - - 0.0
23/01:11pm 18.2 8.7 -0.7 28 8.1 NW 39 56 21 30 - - 0.0
23/01:00pm 17.3 8.3 -0.1 30 7.5 W 37 59 20 32 - - 0.0
23/12:39pm 17.5 9.1 -0.8 29 7.8 W 33 56 18 30 - - 0.0
23/12:38pm 17.7 9.6 -0.5 29 7.8 W 32 44 17 24 - - 0.0
23/12:30pm 17.7 7.1 -1.6 27 8.1 WNW 44 72 24 39 - - 0.0
23/12:00pm 18.0 9.0 0.1 30 7.8 WNW 37 61 20 33 - - 0.0
23/11:30am 17.9 8.4 -0.5 28 7.9 WNW 39 63 21 34 - - 0.0
23/11:00am 17.7 9.0 -0.8 28 7.9 WNW 35 57 19 31 - - 0.0
23/10:30am 17.2 8.4 -1.4 28 7.8 WNW 35 72 19 39 - - 0.0
23/10:00am 17.4 8.2 -1.4 28 7.9 WNW 37 59 20 32 - - 0.0
23/09:30am 17.2 7.9 0.4 32 7.3 WNW 39 61 21 33 - - 0.0
23/09:00am 17.1 9.3 2.0 36 6.8 W 32 50 17 27 - - 0.0
23/08:30am 17.0 8.6 1.8 36 6.8 WNW 35 57 19 31 - - 0.0
23/08:00am 16.8 8.5 2.1 37 6.6 WNW 35 54 19 29 - - 0.0
23/07:30am 16.7 8.5 2.6 38 6.4 WNW 35 54 19 29 - - 0.0
23/07:00am 16.7 9.9 2.9 39 6.3 WNW 28 56 15 30 - - 0.0
23/06:30am 17.0 9.2 1.8 36 6.8 WNW 32 52 17 28 - - 0.0
23/06:00am 17.1 9.9 3.2 39 6.4 WNW 30 54 16 29 - - 0.0
23/05:30am 17.7 11.0 3.8 39 6.5 WNW 28 48 15 26 - - 0.0
23/05:22am 17.9 11.3 4.4 41 6.4 WNW 28 50 15 27 - - 0.0
23/05:21am 17.9 11.3 4.4 41 6.4 WNW 28 50 15 27 - - 0.0
23/05:00am 17.4 12.2 8.9 57 4.4 W 26 43 14 23 - - 0.0
23/04:30am 17.6 11.4 9.4 58 4.3 W 32 52 17 28 - - 0.0
23/04:20am 17.8 11.4 9.2 57 4.5 W 33 52 18 28 - - 0.0
23/04:17am 17.8 11.0 9.4 58 4.4 W 35 44 19 24 - - 0.0
23/04:01am 19.0 11.2 9.8 55 4.9 WSW 41 67 22 36 - - 0.0
23/04:00am 19.0 11.2 9.8 55 4.9 WSW 41 67 22 36 - - 0.0
23/03:56am 20.1 12.8 10.3 53 5.3 WSW 39 70 21 38 - - 0.0
23/03:55am 20.4 12.3 10.2 52 5.5 WSW 43 70 23 38 - - 0.0
23/03:53am 20.9 12.3 10.2 50 5.8 W 46 67 25 36 - - 0.0
23/03:30am 24.2 18.5 11.9 46 7.0 WNW 33 56 18 30 - - 0.0
23/03:00am 24.3 19.4 12.7 48 6.7 NW 30 63 16 34 - - 0.0
23/02:30am 24.3 19.1 12.9 49 6.6 NW 32 52 17 28 - - 0.0
23/02:00am 24.6 19.1 12.6 47 6.9 NW 33 57 18 31 - - 0.0
23/01:31am 24.8 19.3 12.5 46 7.1 NW 33 59 18 32 - - 0.0
23/01:30am 24.8 19.3 12.5 46 7.1 NW 33 59 18 32 - - 0.0
23/01:00am 24.7 18.2 12.8 47 6.9 NNW 39 57 21 31 - - 0.0
23/12:30am 24.7 19.0 13.0 48 6.8 NNW 35 59 19 32 - - 0.0
23/12:00am 24.9 19.6 12.4 45 7.2 NNW 32 57 17 31 - - 0.0
 
Date/Time
EST
Temp
°C
App
Temp
°C
Dew
Point
°C
Rel
Hum
%
Delta-T
°C
Wind Press
QNH
hPa
Press
MSL
hPa
Rain since
9am
mm
Dir  Spd
km/h
Gust
km/h
Spd
kts
Gust
kts
22/11:31pm 24.5 19.8 12.1 46 7.1 NNW 28 48 15 26 - - 0.0
22/11:30pm 24.5 19.8 12.1 46 7.1 NNW 28 48 15 26 - - 0.0
22/11:00pm 24.4 19.8 12.4 47 6.9 NNW 28 48 15 26 - - 0.0
22/10:31pm 24.3 19.6 13.1 49 6.5 NNW 30 48 16 26 - - 0.0
22/10:30pm 24.5 19.7 12.9 48 6.7 NNW 30 48 16 26 - - 0.0
22/10:27pm 24.4 20.0 13.0 49 6.6 NNW 28 48 15 26 - - 0.0
22/10:26pm 24.4 20.0 13.0 49 6.6 NNW 28 48 15 26 - - 0.0
22/10:00pm 23.7 20.8 15.0 58 5.2 NNW 24 39 13 21 - - 0.0
22/09:30pm 23.0 21.1 15.3 62 4.6 NNW 19 30 10 16 - - 0.0
22/09:00pm 23.3 20.9 15.3 60 4.8 NW 22 32 12 17 - - 0.0
22/08:30pm 23.4 21.2 14.8 58 5.1 NW 20 41 11 22 - - 0.0
22/08:00pm 23.1 20.0 14.5 58 5.1 NNW 24 35 13 19 - - 0.0
22/07:30pm 22.8 19.9 13.9 57 5.2 N 22 28 12 15 - - 0.0
22/07:00pm 22.9 - 13.8 56 5.3 - - - - - - - 0.0
22/06:30pm 22.6 20.3 14.1 58 5.0 NNW 19 30 10 16 - - 0.0
22/06:00pm 22.5 20.7 14.5 60 4.7 NNW 17 28 9 15 - - 0.0
22/05:30pm 22.6 20.8 14.4 60 4.8 N 17 28 9 15 - - 0.0
22/05:00pm 23.4 20.9 14.2 56 5.4 NNW 20 35 11 19 - - 0.0
22/04:30pm 24.0 20.8 14.2 54 5.8 NNW 24 46 13 25 - - 0.0
22/04:00pm 25.0 21.8 14.2 51 6.4 NNW 24 41 13 22 - - 0.0
22/03:30pm 25.1 21.8 13.9 49 6.6 NNW 24 35 13 19 - - 0.0
22/03:00pm 25.1 20.1 13.5 48 6.8 NW 32 56 17 30 - - 0.0
22/02:32pm 25.1 20.5 13.5 48 6.8 NW 30 48 16 26 - - 0.0
22/02:30pm 25.4 20.7 13.2 46 7.1 NW 30 48 16 26 - - 0.0
22/02:00pm 25.8 20.6 12.9 44 7.5 NW 32 54 17 29 - - 0.0
22/01:37pm 25.5 21.2 13.2 46 7.2 NW 28 54 15 29 - - 0.0
22/01:36pm 25.5 21.2 13.2 46 7.2 NW 28 54 15 29 - - 0.0
22/01:30pm 25.6 21.7 13.3 46 7.2 NNW 26 41 14 22 - - 0.0
22/01:00pm 25.7 21.9 13.6 47 7.1 NW 26 43 14 23 - - 0.0
22/12:30pm 25.5 22.3 14.2 49 6.7 NNW 24 39 13 21 - - 0.0
22/12:00pm 23.8 21.7 15.1 58 5.2 NNW 20 32 11 17 - - 0.0
22/11:30am 21.8 21.8 15.1 65 4.0 NNW 9 17 5 9 - - 0.0
22/11:00am 20.0 20.0 15.3 74 2.8 W 9 13 5 7 - - 0.0
22/10:30am 19.8 19.6 15.6 77 2.5 W 11 15 6 8 - - 0.0
22/10:00am 17.8 18.9 16.6 93 0.7 E 6 9 3 5 - - 0.0
22/09:30am 15.0 15.2 14.6 97 0.2 ENE 7 9 4 5 - - 0.0
22/09:00am 13.6 13.3 13.4 99 0.1 ENE 7 9 4 5 - - 0.2
22/08:30am 11.9 12.5 11.9 100 0.0 CALM 0 4 0 2 - - 0.2
22/08:00am 10.5 10.7 10.5 100 0.0 CALM 0 0 0 0 - - 0.2
22/07:30am 9.5 9.4 9.5 100 0.0 CALM 0 0 0 0 - - 0.2
22/07:00am 9.6 9.2 9.6 100 0.0 NW 2 7 1 4 - - 0.2
22/06:30am 10.4 10.6 10.4 100 0.0 CALM 0 0 0 0 - - 0.2
22/06:00am 10.6 10.8 10.6 100 0.0 CALM 0 0 0 0 - - 0.2
22/05:30am 10.7 10.9 10.7 100 0.0 CALM 0 0 0 0 - - 0.2
22/05:00am 10.8 11.1 10.8 100 0.0 CALM 0 0 0 0 - - 0.2
22/04:30am 10.3 10.4 10.3 100 0.0 CALM 0 0 0 0 - - 0.2
22/04:00am 10.2 10.3 10.2 100 0.0 CALM 0 0 0 0 - - 0.2
22/03:30am 10.2 10.3 10.2 100 0.0 CALM 0 0 0 0 - - 0.2
22/03:00am 10.7 9.6 10.7 100 0.0 NE 7 9 4 5 - - 0.0
22/02:30am 10.9 11.2 10.9 100 0.0 CALM 0 0 0 0 - - 0.0
22/02:00am 10.7 10.9 10.7 100 0.0 CALM 0 0 0 0 - - 0.0
22/01:30am 10.8 11.1 10.8 100 0.0 CALM 0 0 0 0 - - 0.0
22/01:00am 10.6 10.8 10.6 100 0.0 CALM 0 0 0 0 - - 0.0
22/12:30am 11.0 11.3 11.0 100 0.0 CALM 0 0 0 0 - - 0.0
22/12:00am 11.2 11.6 11.2 100 0.0 CALM 0 0 0 0 - - 0.0
 
Date/Time
EST
Temp
°C
App
Temp
°C
Dew
Point
°C
Rel
Hum
%
Delta-T
°C
Wind Press
QNH
hPa
Press
MSL
hPa
Rain since
9am
mm
Dir  Spd
km/h
Gust
km/h
Spd
kts
Gust
kts
21/11:30pm 10.6 10.1 10.6 100 0.0 NNW 4 7 2 4 - - 0.0
21/11:00pm 11.4 11.8 11.4 100 0.0 CALM 0 0 0 0 - - 0.0
21/10:30pm 11.8 12.4 11.8 100 0.0 CALM 0 0 0 0 - - 0.0
21/10:00pm 12.0 12.6 12.0 100 0.0 CALM 0 0 0 0 - - 0.0
21/09:30pm 11.8 11.2 11.6 99 0.1 NW 6 7 3 4 - - 0.0
21/09:00pm 12.3 13.0 12.3 100 0.0 CALM 0 0 0 0 - - 0.0
21/08:30pm 12.4 12.7 12.2 99 0.1 NW 2 7 1 4 - - 0.0
21/08:00pm 13.0 13.9 12.8 99 0.1 CALM 0 0 0 0 - - 0.0
21/07:30pm 13.7 14.0 13.3 97 0.2 N 4 7 2 4 - - 0.0
21/07:00pm 14.3 15.5 13.9 97 0.2 CALM 0 0 0 0 - - 0.0
21/06:30pm 14.9 16.2 14.0 94 0.5 CALM 0 0 0 0 - - 0.0
21/06:00pm 15.5 16.7 13.9 90 0.9 CALM 0 0 0 0 - - 0.0
21/05:30pm 16.2 17.4 13.7 85 1.4 CALM 0 0 0 0 - - 0.0
21/05:00pm 16.7 16.7 13.7 82 1.7 WSW 6 7 3 4 - - 0.0
21/04:30pm 17.2 17.0 13.5 79 2.1 W 7 9 4 5 - - 0.0
21/04:00pm 18.0 18.2 14.2 78 2.2 W 6 9 3 5 - - 0.0
21/03:30pm 18.2 18.1 13.8 75 2.5 WNW 7 11 4 6 - - 0.0
21/03:00pm 18.2 17.6 13.4 73 2.7 W 9 13 5 7 - - 0.0
21/02:30pm 18.6 18.3 14.3 76 2.5 W 9 15 5 8 - - 0.0
21/02:00pm 18.4 18.0 14.0 75 2.5 W 9 11 5 6 - - 0.0
21/01:30pm 18.3 17.8 13.7 74 2.6 WSW 9 13 5 7 - - 0.0
21/01:00pm 17.7 17.1 13.5 76 2.4 WSW 9 13 5 7 - - 0.0
21/12:30pm 17.3 17.1 13.6 79 2.1 W 7 9 4 5 - - 0.0
21/12:00pm 17.0 16.8 13.5 80 2.0 NNW 7 11 4 6 - - 0.0
21/11:30am 16.8 16.3 13.8 82 1.7 NW 9 13 5 7 - - 0.0
21/11:00am 16.6 16.0 13.6 82 1.7 NW 9 13 5 7 - - 0.0
21/10:30am 16.5 15.9 13.5 82 1.7 WNW 9 13 5 7 - - 0.0
21/10:00am 16.0 15.3 13.1 83 1.6 W 9 13 5 7 - - 0.0
21/09:30am 16.0 15.5 13.9 87 1.2 W 9 13 5 7 - - 0.0
21/09:00am 15.5 14.9 13.4 87 1.2 W 9 11 5 6 - - 12.4
21/08:30am 15.1 15.1 13.7 91 0.8 WNW 6 7 3 4 - - 12.4
21/08:00am 14.9 14.7 13.6 92 0.7 NNW 7 9 4 5 - - 12.4
21/07:30am 14.6 14.5 13.9 96 0.4 N 7 9 4 5 - - 12.4
21/07:00am 14.4 15.3 13.9 97 0.3 NNW 2 7 1 4 - - 12.4
21/06:30am 14.4 15.7 14.0 97 0.2 CALM 0 0 0 0 - - 12.4
21/06:00am 14.4 15.7 14.0 97 0.2 CALM 0 0 0 0 - - 12.4
21/05:30am 14.5 15.7 13.8 96 0.4 CALM 0 6 0 3 - - 12.4
21/05:00am 14.6 15.8 13.7 94 0.5 CALM 0 7 0 4 - - 12.4
21/04:30am 14.5 14.4 13.4 93 0.6 W 6 7 3 4 - - 12.4
21/04:00am 14.6 14.6 13.5 93 0.6 W 6 7 3 4 - - 12.4
21/03:30am 14.7 14.6 13.8 94 0.5 W 7 11 4 6 - - 12.4
21/03:00am 14.6 15.1 14.1 97 0.3 WNW 4 9 2 5 - - 12.4

Other Formats:

Comma delimited format used in spreadsheet applications
http://www.bom.gov.au/fwo/IDN60801/IDN60801.94775.axf

JavaScript Object Notation format (JSON) in row-major order
http://www.bom.gov.au/fwo/IDN60801/IDN60801.94775.json